TimeCST,TemperatureF,Dew PointF,Humidity,Sea Level PressureIn,VisibilityMPH,Wind Direction,Wind SpeedMPH,Gust SpeedMPH,PrecipitationIn,Events,Conditions,WindDirDegrees,DateUTC
12:53 AM,52.0,34.0,50,30.30,10.0,NE,9.2,-,N/A,,Overcast,40,2012-11-14 06:53:00
1:53 AM,51.1,34.0,52,30.32,10.0,NNE,9.2,-,N/A,,Overcast,30,2012-11-14 07:53:00
2:53 AM,50.0,35.1,57,30.30,10.0,NE,11.5,-,N/A,,Mostly Cloudy,50,2012-11-14 08:53:00
3:53 AM,50.0,34.0,54,30.29,10.0,NE,10.4,-,N/A,,Overcast,50,2012-11-14 09:53:00
4:53 AM,50.0,36.0,59,30.30,10.0,NNE,11.5,-,N/A,,Overcast,30,2012-11-14 10:53:00
5:53 AM,48.9,37.0,64,30.30,10.0,NNE,11.5,-,N/A,,Mostly Cloudy,20,2012-11-14 11:53:00
6:53 AM,46.9,37.0,68,30.33,10.0,North,4.6,-,N/A,,Scattered Clouds,350,2012-11-14 12:53:00
7:53 AM,51.1,39.0,63,30.33,10.0,NNE,11.5,-,N/A,,Scattered Clouds,20,2012-11-14 13:53:00
8:53 AM,52.0,39.0,61,30.35,10.0,North,8.1,-,N/A,,Scattered Clouds,10,2012-11-14 14:53:00
9:53 AM,54.0,39.9,59,30.34,10.0,NNE,8.1,-,N/A,,Partly Cloudy,20,2012-11-14 15:53:00
10:53 AM,55.9,37.9,51,30.34,10.0,North,10.4,-,N/A,,Clear,10,2012-11-14 16:53:00
11:53 AM,57.9,33.1,39,30.30,10.0,North,9.2,-,N/A,,Clear,360,2012-11-14 17:53:00
12:53 PM,59.0,36.0,42,30.27,10.0,NW,10.4,-,N/A,,Clear,320,2012-11-14 18:53:00
1:53 PM,61.0,35.1,38,30.25,10.0,North,10.4,-,N/A,,Clear,350,2012-11-14 19:53:00
2:53 PM,62.1,36.0,38,30.24,10.0,NNW,12.7,-,N/A,,Clear,340,2012-11-14 20:53:00
3:53 PM,62.1,33.1,34,30.24,10.0,North,11.5,-,N/A,,Clear,350,2012-11-14 21:53:00
4:53 PM,59.0,33.1,38,30.25,10.0,North,8.1,-,N/A,,Clear,350,2012-11-14 22:53:00
5:53 PM,55.9,34.0,44,30.26,10.0,North,5.8,-,N/A,,Clear,350,2012-11-14 23:53:00
6:53 PM,55.9,34.0,44,30.27,10.0,North,6.9,-,N/A,,Clear,350,2012-11-15 00:53:00
7:53 PM,55.9,36.0,47,30.27,10.0,North,10.4,-,N/A,,Clear,10,2012-11-15 01:53:00
8:53 PM,55.0,37.0,51,30.28,10.0,North,10.4,-,N/A,,Clear,10,2012-11-15 02:53:00
9:53 PM,53.1,39.0,59,30.29,10.0,North,11.5,-,N/A,,Clear,10,2012-11-15 03:53:00
10:53 PM,52.0,39.0,61,30.29,10.0,NNE,11.5,-,N/A,,Clear,20,2012-11-15 04:53:00
11:53 PM,51.1,39.0,63,30.28,10.0,North,11.5,-,N/A,,Clear,10,2012-11-15 05:53:00